Time;durP1;ratioP1;P1;durP2;ratioP2;P2;SDS_P1;SDS_P2;PMS_P1;PMS_P2;Temp;Humidity;BMP_temperature;BMP_pressure;BME280_temperature;BME280_humidity;BME280_pressure;Samples;Min_cycle;Max_cycle;Signal;HPM_P1;HPM_P2
2023/08/19 00:01:20;;;;;;;5.23;4.00;;;;;;;23.53;71.06;157418.88;5084470;28;20450;-80
2023/08/19 00:03:49;;;;;;;4.13;3.60;;;;;;;23.48;70.91;157407.09;5058662;28;20446;-80
2023/08/19 00:06:31;;;;;;;3.90;3.60;;;;;;;23.49;70.94;157409.72;5058103;28;21004;-80
2023/08/19 00:08:58;;;;;;;4.87;4.10;;;;;;;23.44;71.79;157395.34;5082510;28;20569;-80
2023/08/19 00:11:25;;;;;;;4.53;3.93;;;;;;;23.43;71.49;157392.75;5030124;28;20514;-80
2023/08/19 00:13:51;;;;;;;5.40;4.13;;;;;;;23.40;71.57;157386.22;5048065;28;20842;-80
2023/08/19 00:16:18;;;;;;;4.80;4.10;;;;;;;23.41;73.49;157387.50;5037000;28;20967;-80
2023/08/19 00:18:45;;;;;;;5.23;3.83;;;;;;;23.35;72.33;157371.78;5075359;28;20450;-80
2023/08/19 00:21:12;;;;;;;5.63;4.07;;;;;;;23.29;73.55;157357.41;5053601;28;20958;-80
2023/08/19 00:23:39;;;;;;;4.60;4.10;;;;;;;23.25;73.34;157345.63;5079274;28;20446;-80
2023/08/19 00:26:05;;;;;;;5.30;4.03;;;;;;;23.20;72.64;157332.53;5051377;28;20461;-80
2023/08/19 00:28:32;;;;;;;4.10;3.70;;;;;;;23.18;73.84;157327.34;5050224;28;20474;-80
2023/08/19 00:30:58;;;;;;;3.83;3.43;;;;;;;23.16;74.49;157323.44;5018994;28;21038;-80
2023/08/19 00:33:25;;;;;;;4.60;4.20;;;;;;;23.12;74.22;157311.63;5027623;28;20447;-80
2023/08/19 00:35:52;;;;;;;4.80;3.87;;;;;;;23.11;77.03;157310.38;5059045;28;20458;-80
2023/08/19 00:38:20;;;;;;;5.10;3.80;;;;;;;22.99;74.72;157280.28;5042687;28;20549;-80
2023/08/19 00:40:46;;;;;;;9.00;4.60;;;;;;;22.99;75.25;157280.28;5046918;28;20450;-80
2023/08/19 00:43:13;;;;;;;4.10;3.80;;;;;;;23.00;75.50;157282.94;5041840;28;21000;-80
2023/08/19 00:45:41;;;;;;;6.40;3.87;;;;;;;23.02;76.72;157288.16;5049102;28;20453;-80
2023/08/19 00:48:08;;;;;;;7.03;3.80;;;;;;;22.97;76.74;157275.09;5058930;28;20443;-79
2023/08/19 00:50:35;;;;;;;4.47;4.07;;;;;;;22.95;75.84;157268.56;5047761;28;20474;-80
2023/08/19 00:53:02;;;;;;;5.20;4.70;;;;;;;22.91;75.78;157258.06;5082894;28;20849;-80
2023/08/19 00:55:32;;;;;;;4.50;4.10;;;;;;;22.91;74.75;157258.06;5054063;28;20494;-80
2023/08/19 00:58:01;;;;;;;4.73;4.30;;;;;;;22.92;74.35;157262.03;5079767;28;20463;-80
2023/08/19 01:00:31;;;;;;;4.47;4.07;;;;;;;22.95;74.29;157268.56;5044766;28;20501;-80
2023/08/19 01:02:58;;;;;;;4.70;3.90;;;;;;;22.95;74.01;157269.81;5030738;28;20853;-80
2023/08/19 01:05:28;;;;;;;5.40;4.63;;;;;;;22.97;75.53;157275.09;5054069;28;20533;-80
2023/08/19 01:07:56;;;;;;;4.57;3.90;;;;;;;22.94;79.14;157267.25;5050112;28;20449;-80
2023/08/19 01:10:28;;;;;;;4.30;3.93;;;;;;;22.88;81.06;157250.22;5046795;28;20479;-79
2023/08/19 01:13:04;;;;;;;6.30;4.80;;;;;;;22.74;78.00;157214.94;5033479;28;20864;-80
2023/08/19 01:15:34;;;;;;;4.63;4.10;;;;;;;22.70;79.32;157204.50;5033468;28;20504;-80
2023/08/19 01:18:03;;;;;;;5.63;4.57;;;;;;;22.69;76.78;157200.63;5074342;28;20775;-79
2023/08/19 01:20:31;;;;;;;4.60;4.20;;;;;;;22.70;76.95;157204.50;5044886;28;20446;-79
2023/08/19 01:23:03;;;;;;;4.67;4.27;;;;;;;22.71;77.84;157205.84;5053794;28;20465;-80
2023/08/19 01:25:30;;;;;;;6.43;4.53;;;;;;;22.73;75.62;157211.03;5066762;28;20430;-79
2023/08/19 01:27:57;;;;;;;4.23;3.73;;;;;;;22.74;76.90;157213.69;5047691;28;20464;-79
2023/08/19 01:30:25;;;;;;;4.33;3.90;;;;;;;22.70;77.96;157204.50;5027819;28;20472;-79
2023/08/19 01:32:52;;;;;;;4.60;4.20;;;;;;;22.67;80.27;157196.66;5060233;28;20458;-80
2023/08/19 01:35:19;;;;;;;4.53;4.13;;;;;;;22.62;79.82;157183.56;5066512;28;20445;-79
2023/08/19 01:37:48;;;;;;;4.90;4.43;;;;;;;22.59;81.54;157174.41;5044962;28;20451;-79
2023/08/19 01:40:15;;;;;;;6.53;5.17;;;;;;;22.55;79.06;157165.28;5074717;28;20459;-79
2023/08/19 01:42:44;;;;;;;3.93;3.63;;;;;;;22.54;78.13;157162.66;5054282;28;20546;-80
2023/08/19 01:45:11;;;;;;;5.67;4.70;;;;;;;22.59;80.62;157175.72;5034533;28;20529;-80
2023/08/19 01:47:38;;;;;;;4.80;4.30;;;;;;;22.52;78.30;157157.44;5080190;28;20776;-80
2023/08/19 01:50:05;;;;;;;6.10;4.50;;;;;;;22.53;78.22;157160.03;5071075;28;20564;-80
2023/08/19 01:52:32;;;;;;;5.20;4.27;;;;;;;22.54;79.03;157162.66;5057441;28;20482;-80
2023/08/19 01:54:58;;;;;;;4.90;4.50;;;;;;;22.56;80.33;157167.88;5030979;28;20461;-80
2023/08/19 01:57:26;;;;;;;4.93;4.33;;;;;;;22.49;81.75;157149.59;5051158;28;20856;-80
2023/08/19 01:59:54;;;;;;;6.90;4.50;;;;;;;22.40;82.76;157126.06;5053428;28;20453;-80
2023/08/19 02:02:21;;;;;;;6.13;4.40;;;;;;;22.33;83.36;157109.13;5083587;28;20462;-80
2023/08/19 02:04:48;;;;;;;5.03;4.50;;;;;;;22.24;81.66;157084.31;5072304;28;20462;-80
2023/08/19 02:07:14;;;;;;;5.33;4.43;;;;;;;22.26;85.09;157090.84;5075048;28;20564;-80
2023/08/19 02:09:41;;;;;;;5.77;4.87;;;;;;;22.20;82.88;157075.16;5065221;28;20473;-80
2023/08/19 02:12:09;;;;;;;4.40;4.00;;;;;;;22.22;84.12;157079.06;5080215;28;20453;-79
2023/08/19 02:14:36;;;;;;;6.67;5.03;;;;;;;22.17;82.75;157067.31;5074216;28;20455;-80
2023/08/19 02:17:04;;;;;;;6.50;4.80;;;;;;;22.17;83.42;157066.00;5051106;28;20893;-80
2023/08/19 02:19:31;;;;;;;5.70;4.50;;;;;;;22.13;85.37;157055.56;5081003;28;20446;-80
2023/08/19 02:21:57;;;;;;;5.17;4.67;;;;;;;22.10;86.40;157047.72;5056754;28;20458;-80
2023/08/19 02:24:25;;;;;;;5.50;5.00;;;;;;;22.01;87.17;157024.22;5033964;28;20516;-80
2023/08/19 02:26:51;;;;;;;4.93;4.53;;;;;;;21.93;87.22;157003.31;5027163;28;20906;-80
2023/08/19 02:29:18;;;;;;;5.63;5.13;;;;;;;21.93;87.93;157003.31;5051393;28;20561;-80
2023/08/19 02:31:44;;;;;;;5.30;4.80;;;;;;;21.91;88.14;156998.09;5057472;28;20815;-80
2023/08/19 02:34:12;;;;;;;6.17;4.50;;;;;;;21.88;88.30;156991.56;5031833;28;20934;-80
2023/08/19 02:36:39;;;;;;;6.23;5.33;;;;;;;21.85;88.57;156983.69;5048072;28;20573;-80
2023/08/19 02:39:06;;;;;;;8.53;4.70;;;;;;;21.81;88.18;156974.56;5083233;28;20865;-80
2023/08/19 02:41:32;;;;;;;5.50;5.00;;;;;;;21.82;89.55;156975.84;5081994;28;20880;-80
2023/08/19 02:44:00;;;;;;;5.17;4.67;;;;;;;21.78;89.46;156965.41;5036296;28;20568;-80
2023/08/19 02:46:26;;;;;;;5.37;4.83;;;;;;;21.78;89.96;156965.41;5068184;28;20474;-79
2023/08/19 02:48:53;;;;;;;5.70;4.87;;;;;;;21.73;88.51;156953.69;5034914;28;20457;-80
2023/08/19 02:51:21;;;;;;;5.23;4.73;;;;;;;21.69;86.35;156943.22;5044267;28;20451;-79
2023/08/19 02:53:47;;;;;;;5.07;4.67;;;;;;;21.73;86.84;156953.69;5067542;28;20482;-80
2023/08/19 02:56:14;;;;;;;5.37;4.60;;;;;;;21.74;85.99;156954.94;5068862;28;20453;-79
2023/08/19 02:58:40;;;;;;;5.13;4.70;;;;;;;21.77;84.13;156964.09;5067565;28;20450;-79
2023/08/19 03:01:07;;;;;;;4.97;4.47;;;;;;;21.80;84.65;156971.94;5066258;28;20860;-79
2023/08/19 03:03:34;;;;;;;7.93;5.37;;;;;;;21.83;83.77;156979.78;5069930;28;20840;-79
2023/08/19 03:06:02;;;;;;;5.80;5.30;;;;;;;21.87;84.56;156987.69;5085030;28;20430;-79
2023/08/19 03:08:30;;;;;;;5.60;4.20;;;;;;;21.84;85.78;156981.09;5053211;28;20477;-79
2023/08/19 03:10:56;;;;;;;5.53;4.67;;;;;;;21.83;87.25;156978.47;5023940;28;20474;-79
2023/08/19 03:13:23;;;;;;;6.43;4.90;;;;;;;21.79;86.97;156968.00;5079907;28;20966;-79
2023/08/19 03:15:49;;;;;;;5.40;4.90;;;;;;;21.76;86.29;156961.47;5051260;28;20480;-79
2023/08/19 03:18:16;;;;;;;5.60;4.43;;;;;;;21.76;86.77;156961.47;5067198;28;20966;-79
2023/08/19 03:20:43;;;;;;;5.23;4.70;;;;;;;21.70;88.32;156945.84;5071447;28;20502;-79
2023/08/19 03:23:09;;;;;;;5.93;4.90;;;;;;;21.67;89.13;156938.00;5059665;28;20456;-79
2023/08/19 03:25:37;;;;;;;4.87;4.37;;;;;;;21.63;89.63;156927.53;5052773;28;20441;-79
2023/08/19 03:28:05;;;;;;;5.93;5.30;;;;;;;21.57;88.67;156910.59;5074623;28;20619;-79
2023/08/19 03:30:32;;;;;;;6.00;5.03;;;;;;;21.52;89.13;156898.84;5046815;28;20486;-79
2023/08/19 03:32:58;;;;;;;6.10;5.50;;;;;;;21.53;91.08;156901.44;5066851;28;20462;-79
2023/08/19 03:35:25;;;;;;;5.80;5.30;;;;;;;21.49;91.49;156891.03;5032413;28;20781;-79
2023/08/19 03:37:52;;;;;;;5.77;5.27;;;;;;;21.45;91.58;156879.22;5046128;28;20535;-79
2023/08/19 03:40:19;;;;;;;5.83;5.30;;;;;;;21.41;92.55;156868.81;5055810;28;20464;-79
2023/08/19 03:42:46;;;;;;;7.07;4.40;;;;;;;21.40;92.70;156866.19;5053260;28;20453;-79
2023/08/19 03:45:13;;;;;;;6.50;5.77;;;;;;;21.36;92.91;156857.09;5028947;28;20445;-83
2023/08/19 03:47:40;;;;;;;7.23;5.50;;;;;;;21.32;93.41;156846.63;5054898;28;20455;-81
2023/08/19 03:50:07;;;;;;;6.30;4.80;;;;;;;21.33;94.25;156849.25;5067934;28;20538;-81
2023/08/19 03:52:34;;;;;;;6.40;5.40;;;;;;;21.29;94.42;156838.78;5034496;28;20540;-81
2023/08/19 03:55:01;;;;;;;5.70;5.20;;;;;;;21.24;93.18;156827.03;5070131;28;20460;-81
2023/08/19 03:57:27;;;;;;;5.90;5.40;;;;;;;21.21;93.25;156817.91;5046753;28;20974;-81
2023/08/19 03:59:55;;;;;;;6.37;5.27;;;;;;;21.23;94.96;156823.16;5050555;28;20445;-81
2023/08/19 04:02:22;;;;;;;5.93;4.93;;;;;;;21.19;93.26;156812.69;5058466;28;20488;-82
2023/08/19 04:04:59;;;;;;;5.60;5.10;;;;;;;21.21;95.94;156819.22;5029949;28;20445;-81
2023/08/19 04:07:27;;;;;;;5.77;5.27;;;;;;;21.19;97.24;156812.69;5016372;28;20896;-81
2023/08/19 04:09:54;;;;;;;5.67;5.07;;;;;;;21.17;96.96;156807.47;5032815;28;20827;-81
2023/08/19 04:12:22;;;;;;;5.50;4.33;;;;;;;21.13;96.76;156797.00;5055876;28;20815;-81
2023/08/19 04:14:49;;;;;;;5.33;4.83;;;;;;;21.12;97.04;156794.44;5032141;28;20451;-81
2023/08/19 04:17:17;;;;;;;5.80;5.20;;;;;;;21.08;97.58;156783.97;5027118;28;20986;-81
2023/08/19 04:19:44;;;;;;;5.63;5.13;;;;;;;21.03;96.56;156770.88;5033120;28;20465;-81
2023/08/19 04:22:12;;;;;;;7.03;5.40;;;;;;;21.03;96.49;156770.88;5078117;28;20798;-82
2023/08/19 04:24:38;;;;;;;6.23;5.73;;;;;;;21.00;97.38;156763.03;5060745;28;20564;-81
2023/08/19 04:27:05;;;;;;;5.93;5.33;;;;;;;20.97;97.15;156756.50;5064301;28;21026;-81
2023/08/19 04:29:35;;;;;;;6.87;5.90;;;;;;;20.96;97.50;156753.94;5062101;28;20567;-81
2023/08/19 04:32:02;;;;;;;5.57;5.00;;;;;;;20.90;96.59;156736.94;5045774;28;20476;-81
2023/08/19 04:34:31;;;;;;;6.40;5.80;;;;;;;20.92;97.92;156743.47;5032277;28;20472;-81
2023/08/19 04:37:00;;;;;;;6.10;5.17;;;;;;;20.90;98.45;156738.25;5039144;28;20861;-81
2023/08/19 04:39:27;;;;;;;7.37;5.60;;;;;;;20.88;98.15;156731.75;5028346;28;20458;-81
2023/08/19 04:41:59;;;;;;;6.50;5.80;;;;;;;20.88;98.06;156731.75;5028377;28;20438;-81
2023/08/19 04:44:25;;;;;;;6.20;5.60;;;;;;;20.86;97.70;156727.84;5018777;28;21001;-81
2023/08/19 04:46:52;;;;;;;6.50;5.40;;;;;;;20.88;97.76;156731.75;5024490;28;20990;-81
2023/08/19 04:49:18;;;;;;;7.33;5.07;;;;;;;20.92;98.77;156742.16;5022613;28;20513;-81
2023/08/19 04:51:47;;;;;;;7.00;6.40;;;;;;;20.91;98.54;156739.56;5036120;28;20551;-81
2023/08/19 04:54:14;;;;;;;6.47;5.73;;;;;;;20.92;98.24;156742.16;5035572;28;20803;-81
2023/08/19 04:56:40;;;;;;;5.93;5.33;;;;;;;20.92;98.49;156742.16;5056870;28;20461;-81
2023/08/19 04:59:08;;;;;;;6.57;5.97;;;;;;;20.93;98.94;156746.09;5049423;28;20874;-81
2023/08/19 05:01:35;;;;;;;5.80;5.30;;;;;;;20.96;98.14;156752.63;5053096;28;20480;-81
2023/08/19 05:04:02;;;;;;;6.70;5.20;;;;;;;20.99;98.89;156760.44;5035335;28;20457;-81
2023/08/19 05:06:29;;;;;;;6.23;5.60;;;;;;;21.01;97.32;156766.97;5034131;28;20602;-81
2023/08/19 05:08:58;;;;;;;6.33;5.17;;;;;;;21.07;98.02;156782.69;5051958;28;20969;-81
2023/08/19 05:11:25;;;;;;;5.40;4.83;;;;;;;21.12;96.60;156794.44;5054739;28;20493;-81
2023/08/19 05:13:55;;;;;;;5.30;4.80;;;;;;;21.19;97.64;156812.69;5055618;28;20457;-81
2023/08/19 05:16:21;;;;;;;5.50;4.77;;;;;;;21.22;98.62;156820.53;5061188;28;20984;-82
2023/08/19 05:18:51;;;;;;;7.20;5.53;;;;;;;21.20;98.68;156815.31;5017995;28;20481;-81
2023/08/19 05:21:17;;;;;;;5.47;4.97;;;;;;;21.26;97.80;156829.66;5083499;28;20453;-81
2023/08/19 05:23:44;;;;;;;6.10;5.10;;;;;;;21.35;97.60;156853.13;5035120;28;20445;-81
2023/08/19 05:26:12;;;;;;;6.20;5.07;;;;;;;21.53;99.20;156900.13;5076920;28;20450;-81
2023/08/19 05:28:38;;;;;;;7.97;5.80;;;;;;;21.68;98.34;156940.59;5080892;28;20461;-81
2023/08/19 05:31:05;;;;;;;6.70;5.00;;;;;;;21.90;96.88;156995.47;5080093;28;20477;-81
2023/08/19 05:33:31;;;;;;;9.77;5.30;;;;;;;22.15;94.42;157062.09;5071482;28;20459;-81
2023/08/19 05:35:59;;;;;;;5.07;4.57;;;;;;;22.43;93.67;157135.22;5086800;28;20481;-81
2023/08/19 05:38:25;;;;;;;7.00;4.70;;;;;;;22.68;93.40;157197.97;5070746;28;20461;-81
2023/08/19 05:40:52;;;;;;;4.97;4.57;;;;;;;22.87;91.29;157248.97;5090565;28;20449;-81
2023/08/19 05:43:20;;;;;;;6.83;4.80;;;;;;;23.08;87.16;157301.22;5087430;28;20449;-81
2023/08/19 05:45:48;;;;;;;4.60;4.20;;;;;;;23.37;87.54;157377.06;5082546;28;20623;-81
2023/08/19 05:48:15;;;;;;;6.67;4.93;;;;;;;23.56;86.38;157426.75;5055101;28;20465;-81
2023/08/19 05:50:41;;;;;;;4.87;4.40;;;;;;;23.73;85.19;157471.16;5072142;28;20564;-81
2023/08/19 05:53:08;;;;;;;8.47;4.70;;;;;;;23.85;82.20;157502.56;5034846;28;20531;-81
2023/08/19 05:55:35;;;;;;;9.67;5.03;;;;;;;24.10;81.05;157567.97;5041167;28;20877;-81
2023/08/19 05:58:01;;;;;;;5.40;4.90;;;;;;;24.26;82.69;157607.19;5029144;28;20467;-81
2023/08/19 06:00:29;;;;;;;5.40;4.90;;;;;;;24.39;81.67;157641.19;5047200;28;20555;-81
2023/08/19 06:02:56;;;;;;;5.50;4.90;;;;;;;24.53;82.46;157679.16;5030641;28;20460;-81
2023/08/19 06:05:23;;;;;;;5.50;5.00;;;;;;;24.59;81.45;157694.84;5014155;28;20467;-80
2023/08/19 06:07:49;;;;;;;4.97;4.10;;;;;;;24.69;81.49;157719.69;5029530;28;20554;-79
2023/08/19 06:10:18;;;;;;;5.40;4.47;;;;;;;24.68;79.75;157718.38;5034647;28;21107;-80
2023/08/19 06:12:44;;;;;;;5.60;4.93;;;;;;;24.81;80.21;157752.44;5016679;28;20455;-80
2023/08/19 06:15:11;;;;;;;5.90;5.30;;;;;;;24.97;77.78;157793.00;5028970;28;20463;-79
2023/08/19 06:17:39;;;;;;;5.03;4.60;;;;;;;25.09;75.77;157824.41;5032092;28;20462;-80
2023/08/19 06:20:07;;;;;;;5.57;4.70;;;;;;;25.28;76.38;157874.09;5031770;28;20448;-80
2023/08/19 06:22:34;;;;;;;4.70;4.30;;;;;;;25.37;74.64;157897.69;5048999;28;20484;-81
2023/08/19 06:25:01;;;;;;;5.70;4.80;;;;;;;25.52;75.00;157934.41;5016941;28;20487;-80
2023/08/19 06:27:27;;;;;;;5.47;4.57;;;;;;;25.55;76.19;157942.25;5033211;28;21744;-80
2023/08/19 06:29:54;;;;;;;6.50;4.73;;;;;;;25.67;77.03;157973.66;5038668;28;20835;-80
2023/08/19 06:32:21;;;;;;;6.07;5.17;;;;;;;25.80;76.52;158007.69;5033369;28;20487;-78
2023/08/19 06:34:50;;;;;;;7.70;4.97;;;;;;;25.94;73.12;158044.34;5017341;28;20443;-77
2023/08/19 06:37:20;;;;;;;4.60;4.20;;;;;;;26.13;71.70;158092.84;5030598;28;20470;-78
2023/08/19 06:39:49;;;;;;;5.27;4.60;;;;;;;26.36;71.83;158154.41;5037475;28;20448;-77
2023/08/19 06:42:17;;;;;;;5.00;4.40;;;;;;;26.50;74.04;158191.03;5034270;28;20863;-78
2023/08/19 06:44:44;;;;;;;6.10;5.43;;;;;;;26.57;76.03;158208.06;5032384;28;20808;-78
2023/08/19 06:47:11;;;;;;;5.73;4.73;;;;;;;26.63;70.98;158222.50;5019280;28;20464;-78
2023/08/19 06:49:38;;;;;;;8.40;5.90;;;;;;;26.77;68.33;158260.50;5016679;28;20455;-78
2023/08/19 06:52:09;;;;;;;6.00;5.50;;;;;;;26.90;68.02;158293.28;5020265;28;20493;-78
2023/08/19 06:54:36;;;;;;;5.57;4.97;;;;;;;26.95;69.14;158306.38;5090021;28;20448;-78
2023/08/19 06:57:07;;;;;;;7.17;5.10;;;;;;;27.07;69.23;158337.81;5077585;28;20465;-78
2023/08/19 06:59:36;;;;;;;9.80;4.60;;;;;;;27.17;66.67;158365.31;5075612;28;20540;-78
2023/08/19 07:02:04;;;;;;;9.73;4.97;;;;;;;27.28;65.27;158392.84;5080324;28;20454;-78
2023/08/19 07:04:31;;;;;;;5.33;4.83;;;;;;;27.43;67.55;158432.19;5050824;28;20975;-79
2023/08/19 07:06:59;;;;;;;8.40;5.20;;;;;;;27.48;67.98;158444.00;5085647;28;20895;-78
2023/08/19 07:09:28;;;;;;;5.60;5.10;;;;;;;27.65;67.59;158488.53;5080988;28;20452;-78
2023/08/19 07:11:56;;;;;;;5.37;4.87;;;;;;;27.79;66.25;158525.25;5079112;28;20477;-77
2023/08/19 07:14:24;;;;;;;5.77;5.13;;;;;;;27.99;63.60;158576.34;5082071;28;20451;-78
2023/08/19 07:16:51;;;;;;;5.90;5.30;;;;;;;28.16;62.63;158622.31;5032631;28;20506;-78
2023/08/19 07:19:22;;;;;;;6.20;5.60;;;;;;;28.40;63.12;158683.94;5086374;28;20499;-78
2023/08/19 07:21:48;;;;;;;7.20;4.67;;;;;;;28.56;61.02;158724.59;5081428;28;20453;-79
2023/08/19 07:24:17;;;;;;;10.43;5.03;;;;;;;28.63;63.49;158744.31;5054324;28;20966;-78
2023/08/19 07:26:46;;;;;;;7.00;5.13;;;;;;;28.77;63.47;158779.72;5088605;28;20456;-78
2023/08/19 07:29:13;;;;;;;7.07;5.40;;;;;;;28.90;60.63;158815.13;5068733;28;20456;-78
2023/08/19 07:31:40;;;;;;;6.17;5.57;;;;;;;29.07;60.77;158857.13;5070959;28;20477;-78
2023/08/19 07:34:07;;;;;;;5.50;5.00;;;;;;;29.09;61.59;158862.34;5074791;28;20454;-78
2023/08/19 07:36:33;;;;;;;7.40;5.03;;;;;;;29.25;63.30;158904.38;5076639;28;20452;-78
2023/08/19 07:39:01;;;;;;;7.17;5.37;;;;;;;29.37;61.60;158935.84;5079906;28;20544;-78
2023/08/19 07:41:27;;;;;;;6.67;5.37;;;;;;;29.58;63.76;158990.97;5082470;28;20450;-78
2023/08/19 07:43:55;;;;;;;6.23;5.10;;;;;;;29.66;59.53;159011.97;5090159;28;20561;-78
2023/08/19 07:46:22;;;;;;;7.20;5.37;;;;;;;29.74;63.19;159031.63;5065301;28;20459;-78
2023/08/19 07:48:48;;;;;;;5.10;4.67;;;;;;;29.85;60.09;159061.91;5080753;28;20529;-78
2023/08/19 07:51:15;;;;;;;8.93;5.80;;;;;;;29.98;62.23;159094.69;5091233;28;20880;-78
2023/08/19 07:53:42;;;;;;;7.03;5.30;;;;;;;30.08;56.37;159122.25;5090430;28;20887;-78
2023/08/19 07:56:08;;;;;;;6.50;5.50;;;;;;;30.28;54.67;159172.16;5047982;28;20449;-78
2023/08/19 07:58:37;;;;;;;7.43;4.97;;;;;;;30.40;55.28;159203.69;5089038;28;20469;-78
2023/08/19 08:01:05;;;;;;;8.87;5.13;;;;;;;30.51;56.16;159233.91;5046661;28;20869;-78
2023/08/19 08:03:32;;;;;;;7.73;5.37;;;;;;;30.67;55.11;159275.91;5086067;28;20448;-78
2023/08/19 08:05:59;;;;;;;6.83;5.40;;;;;;;30.82;53.72;159313.97;5048658;28;20457;-78
2023/08/19 08:08:25;;;;;;;6.37;5.17;;;;;;;30.95;54.46;159346.91;5071867;28;20452;-78
2023/08/19 08:10:53;;;;;;;6.07;5.13;;;;;;;30.89;51.96;159332.38;5034984;28;20478;-78
2023/08/19 08:13:19;;;;;;;5.63;4.87;;;;;;;31.14;54.16;159396.75;5076390;28;20449;-78
2023/08/19 08:15:46;;;;;;;6.93;4.80;;;;;;;31.29;59.84;159437.53;5072614;28;20547;-79
2023/08/19 08:18:14;;;;;;;5.83;5.17;;;;;;;31.35;57.58;159453.25;5071329;28;20449;-78
2023/08/19 08:20:41;;;;;;;6.53;5.57;;;;;;;31.32;58.18;159445.34;5073609;28;20457;-78
2023/08/19 08:23:08;;;;;;;5.73;5.03;;;;;;;31.38;50.67;159458.50;5073046;28;20462;-78
2023/08/19 08:25:34;;;;;;;8.57;4.93;;;;;;;31.62;49.88;159521.59;5068817;28;20464;-78
2023/08/19 08:28:01;;;;;;;5.07;4.67;;;;;;;31.80;48.04;159568.91;5087057;28;20457;-78
2023/08/19 08:30:28;;;;;;;5.70;4.70;;;;;;;31.90;50.15;159595.22;5088031;28;20537;-78
2023/08/19 08:32:54;;;;;;;6.60;5.20;;;;;;;32.01;48.07;159624.13;5073873;28;20493;-78
2023/08/19 08:35:22;;;;;;;6.70;4.93;;;;;;;32.18;50.72;159667.50;5041665;28;20472;-79
2023/08/19 08:37:49;;;;;;;7.43;4.90;;;;;;;32.22;50.36;159679.31;5025740;28;20559;-73
2023/08/19 08:40:15;;;;;;;6.20;5.30;;;;;;;32.26;53.07;159688.53;5090212;28;20530;-80
2023/08/19 08:42:42;;;;;;;7.33;5.20;;;;;;;32.35;49.86;159713.53;5054957;28;20446;-79
2023/08/19 08:45:10;;;;;;;6.90;5.33;;;;;;;32.37;48.46;159718.78;5068568;28;20485;-79
2023/08/19 08:47:38;;;;;;;7.10;4.90;;;;;;;32.29;46.78;159696.44;5090149;28;20453;-79
2023/08/19 08:50:06;;;;;;;7.60;5.87;;;;;;;32.27;46.57;159692.50;5088732;28;20441;-79
2023/08/19 08:52:34;;;;;;;7.10;5.20;;;;;;;32.42;46.79;159731.94;5071706;28;20587;-79
2023/08/19 08:55:01;;;;;;;5.37;4.70;;;;;;;32.53;46.44;159758.25;5065793;28;20444;-79
2023/08/19 08:57:28;;;;;;;6.97;5.10;;;;;;;32.54;46.19;159760.91;5055944;28;20799;-79
2023/08/19 08:59:55;;;;;;;8.90;4.80;;;;;;;32.49;46.02;159749.00;5068046;28;20701;-79
2023/08/19 09:02:22;;;;;;;5.43;4.93;;;;;;;32.53;47.00;159759.59;5088998;28;20985;-79
2023/08/19 09:04:49;;;;;;;5.97;5.30;;;;;;;32.58;46.27;159772.72;5065345;28;20452;-79
2023/08/19 09:07:21;;;;;;;6.27;5.03;;;;;;;32.50;44.56;159752.97;5056312;28;20843;-79
2023/08/19 09:09:51;;;;;;;7.17;5.00;;;;;;;32.49;44.68;159749.00;5067752;28;20495;-79
2023/08/19 09:12:19;;;;;;;6.27;4.83;;;;;;;32.52;44.65;159756.88;5082890;28;21078;-79
2023/08/19 09:14:48;;;;;;;6.00;4.53;;;;;;;32.61;45.48;159780.63;5083961;28;20525;-79
2023/08/19 09:17:15;;;;;;;5.90;5.20;;;;;;;32.66;44.14;159792.44;5053896;28;20876;-79
2023/08/19 09:19:42;;;;;;;6.13;4.90;;;;;;;32.56;44.52;159766.16;5040720;28;20453;-79
2023/08/19 09:22:15;;;;;;;7.07;5.00;;;;;;;32.55;45.24;159763.50;5087017;28;20461;-79
2023/08/19 09:24:42;;;;;;;9.43;5.13;;;;;;;32.62;44.46;159781.94;5069189;28;20548;-79
2023/08/19 09:27:10;;;;;;;9.03;5.73;;;;;;;32.55;47.66;159764.81;5082801;28;20491;-79
2023/08/19 09:29:37;;;;;;;7.43;5.00;;;;;;;32.59;43.21;159775.38;5080558;28;20453;-79
2023/08/19 09:32:04;;;;;;;8.10;6.07;;;;;;;32.53;49.43;159759.59;5070516;28;20492;-79
2023/08/19 09:34:32;;;;;;;6.27;5.60;;;;;;;32.30;47.55;159700.34;5040179;28;20446;-79
2023/08/19 09:36:59;;;;;;;6.17;5.60;;;;;;;32.29;45.35;159697.75;5068604;28;20460;-79
2023/08/19 09:39:34;;;;;;;6.87;5.10;;;;;;;32.42;45.66;159731.94;5054678;28;20478;-79
2023/08/19 09:42:00;;;;;;;7.47;5.30;;;;;;;32.28;50.25;159695.13;5086861;28;20467;-79
2023/08/19 09:44:29;;;;;;;8.77;5.20;;;;;;;32.19;45.34;159671.47;5070271;28;20450;-79
2023/08/19 09:46:56;;;;;;;8.10;5.30;;;;;;;32.34;45.09;159710.91;5022867;28;20462;-79
2023/08/19 09:49:23;;;;;;;5.90;5.20;;;;;;;32.37;44.75;159717.47;5055047;28;20450;-79
2023/08/19 09:51:53;;;;;;;6.87;5.70;;;;;;;32.48;43.59;159747.72;5073591;28;20477;-79
2023/08/19 09:54:20;;;;;;;6.03;4.83;;;;;;;32.44;44.49;159737.16;5069804;28;20471;-79
2023/08/19 09:56:53;;;;;;;6.03;5.37;;;;;;;32.44;44.40;159737.16;5086397;28;20456;-78
2023/08/19 09:59:20;;;;;;;6.80;5.60;;;;;;;32.45;44.45;159739.81;5072947;28;20448;-79
2023/08/19 10:01:48;;;;;;;7.33;4.87;;;;;;;32.25;47.04;159685.94;5085774;28;20445;-79
2023/08/19 10:04:15;;;;;;;7.33;5.63;;;;;;;32.22;43.70;159679.31;5051386;28;20925;-79
2023/08/19 10:06:46;;;;;;;6.03;5.10;;;;;;;32.33;44.01;159706.94;5055300;28;20456;-79
2023/08/19 10:09:17;;;;;;;6.10;5.17;;;;;;;32.47;43.31;159743.75;5077440;28;20441;-79
2023/08/19 10:11:44;;;;;;;5.33;4.83;;;;;;;32.51;44.12;159755.56;5090458;28;20503;-79
2023/08/19 10:14:12;;;;;;;6.20;5.60;;;;;;;32.55;44.39;159763.50;5089581;28;20996;-79
2023/08/19 10:16:42;;;;;;;8.43;5.20;;;;;;;32.54;44.96;159760.91;5076727;28;20461;-79
2023/08/19 10:19:13;;;;;;;7.23;5.87;;;;;;;32.53;44.74;159758.25;5088048;28;20478;-79
2023/08/19 10:21:40;;;;;;;6.50;4.80;;;;;;;32.61;44.23;159779.28;5085973;28;20464;-78
2023/08/19 10:24:08;;;;;;;6.60;4.70;;;;;;;32.64;44.71;159787.19;5090480;28;20444;-79
2023/08/19 10:26:34;;;;;;;10.93;5.47;;;;;;;32.79;43.70;159827.94;5074549;28;20457;-78
2023/08/19 10:29:05;;;;;;;6.10;5.50;;;;;;;32.90;44.66;159855.53;5076121;28;20458;-78
2023/08/19 10:31:32;;;;;;;6.33;5.80;;;;;;;32.88;43.63;159851.63;5059564;28;20475;-79
2023/08/19 10:33:59;;;;;;;5.73;5.17;;;;;;;32.86;42.66;159845.00;5088951;28;20456;-79
2023/08/19 10:36:29;;;;;;;7.93;5.60;;;;;;;32.82;42.88;159834.50;5074466;28;20456;-78
2023/08/19 10:38:57;;;;;;;7.13;4.97;;;;;;;32.74;42.35;159813.47;5090765;28;20465;-78
2023/08/19 10:41:26;;;;;;;9.97;5.43;;;;;;;32.67;42.36;159795.09;5041301;28;20457;-78
2023/08/19 10:43:57;;;;;;;6.30;5.80;;;;;;;32.61;41.89;159779.28;5075947;28;20447;-78
2023/08/19 10:46:28;;;;;;;6.77;5.43;;;;;;;32.54;42.96;159762.19;5060029;28;20996;-78
2023/08/19 10:48:55;;;;;;;5.30;4.80;;;;;;;32.58;41.38;159771.41;5038118;28;20486;-78
2023/08/19 10:51:22;;;;;;;6.17;5.60;;;;;;;32.64;41.34;159788.50;5086162;28;20457;-78
2023/08/19 10:53:50;;;;;;;5.60;4.43;;;;;;;32.63;41.73;159784.53;5072299;28;20482;-78
2023/08/19 10:56:20;;;;;;;6.20;5.27;;;;;;;32.68;43.13;159797.69;5074850;28;20444;-79
2023/08/19 10:58:47;;;;;;;7.27;5.13;;;;;;;32.67;43.46;159795.09;5071922;28;21083;-78
2023/08/19 11:01:14;;;;;;;6.27;5.67;;;;;;;32.77;43.02;159822.69;5074724;28;20479;-79
2023/08/19 11:03:41;;;;;;;7.30;5.97;;;;;;;32.73;42.99;159810.81;5091246;28;20491;-78
2023/08/19 11:06:07;;;;;;;6.33;5.40;;;;;;;32.81;42.30;159831.84;5087071;28;20488;-78
2023/08/19 11:08:44;;;;;;;6.93;5.57;;;;;;;32.73;41.71;159810.81;5069305;28;20454;-78
2023/08/19 11:11:16;;;;;;;6.40;4.57;;;;;;;32.73;40.72;159810.81;5075186;28;20556;-78
2023/08/19 11:13:43;;;;;;;7.87;5.60;;;;;;;32.70;41.21;159802.97;5084855;28;20506;-78
2023/08/19 11:16:10;;;;;;;4.73;4.33;;;;;;;32.66;42.67;159792.44;5048926;28;20465;-78
2023/08/19 11:18:39;;;;;;;6.83;5.67;;;;;;;32.55;40.35;159763.50;5087682;28;20925;-78
2023/08/19 11:21:06;;;;;;;6.17;5.57;;;;;;;32.59;40.84;159775.38;5042617;28;20455;-79
2023/08/19 11:23:32;;;;;;;5.90;5.27;;;;;;;32.66;39.93;159792.44;5057815;28;20449;-79
2023/08/19 11:26:00;;;;;;;7.13;5.07;;;;;;;32.77;39.15;159822.69;5052475;28;20805;-79